Latest Weather Observations for Marble Bar

IDW60801

Issued at 5:35 pm WST Monday 20 October 2014 (issued every 30 minutes, with the page automatically refreshed every 10 minutes)

About weather observations | Map of weather stations | Latest weather observations for WA | Other Formats
Station Details ID: 004106 Name: MARBLE BAR Lat: -21.18 Lon: 119.75 Height: 182.3 m
Data from the previous 72 hours. | See also: Recent months at Marble Bar
Date/Time
WST
Temp
°C
App
Temp
°C
Dew
Point
Rel
Hum
%
Delta-T
°C
Wind Press
QNH
hPa
Press
MSL
hPa
Rain
since 9 am
mm
Dir
 
Spd
km/h
Gust
km/h
Spd
kts
Gust
kts
20/05:30pm 36.2 31.0 -0.2 10 18.2 W 17 28 9 15 1012.4 1011.1 0.0
20/05:00pm 36.7 32.6 0.1 10 18.5 NW 11 15 6 8 1012.1 1010.8 0.0
20/04:30pm 37.4 31.9 0.7 10 18.7 W 19 22 10 12 1011.8 1010.6 0.0
20/04:00pm 38.1 32.8 -0.3 9 19.4 WSW 17 33 9 18 1011.8 1010.6 0.0
20/03:30pm 38.0 32.4 1.1 10 19.0 WSW 20 26 11 14 1011.8 1010.6 0.0
20/03:00pm 37.8 32.7 1.0 10 18.9 WNW 17 30 9 16 1012.1 1010.8 0.0
20/02:30pm 37.8 32.7 1.0 10 18.9 WNW 17 26 9 14 1012.3 1011.0 0.0
20/02:00pm 37.7 31.7 0.9 10 18.9 WNW 22 33 12 18 1012.6 1011.3 0.0
20/01:30pm 37.6 33.1 2.1 11 18.6 NNW 15 24 8 13 1013.1 1011.8 0.0
20/01:00pm 38.4 32.1 4.0 12 18.6 S 26 44 14 24 1013.4 1012.1 0.0
20/12:30pm 37.6 32.6 3.4 12 18.2 NW 19 24 10 13 1014.1 1012.8 0.0
20/12:00pm 35.9 33.5 5.2 15 16.7 W 7 15 4 8 1014.6 1013.4 0.0
20/11:30am 36.1 33.0 5.4 15 16.8 WSW 11 24 6 13 1015.1 1013.9 0.0
20/11:00am 34.8 32.0 5.3 16 16.0 W 9 19 5 10 1015.4 1014.2 0.0
20/10:30am 34.1 32.0 5.6 17 15.4 WSW 6 11 3 6 1015.7 1014.5 0.0
20/10:00am 33.0 30.8 5.5 18 14.8 SE 6 13 3 7 1016.1 1014.9 0.0
20/09:30am 31.6 30.1 6.6 21 13.6 E 4 7 2 4 1016.5 1015.3 0.0
20/09:00am 31.4 29.9 9.0 25 12.6 ESE 7 15 4 8 1016.7 1015.5 0.0
20/08:30am 29.8 28.1 9.9 29 11.3 ESE 9 15 5 8 1016.7 1015.5 0.0
20/08:00am 28.7 28.9 13.0 38 9.3 SE 4 9 2 5 1016.6 1015.4 0.0
20/07:30am 26.9 27.3 13.6 44 7.9 ESE 4 6 2 3 1016.4 1015.2 0.0
20/07:00am 25.3 27.0 15.3 54 6.1 CALM 0 2 0 1 1016.3 1015.1 0.0
20/06:30am 23.5 25.6 16.3 64 4.4 CALM 0 0 0 0 1016.0 1014.8 0.0
20/06:00am 19.9 21.3 14.3 70 3.3 CALM 0 0 0 0 1015.5 1014.3 0.0
20/05:30am 19.3 20.3 14.3 73 2.9 SE 2 6 1 3 1015.1 1013.9 0.0
20/05:00am 19.9 21.3 14.5 71 3.2 CALM 0 2 0 1 1014.9 1013.7 0.0
20/04:30am 19.8 21.0 13.7 68 3.5 CALM 0 0 0 0 1014.6 1013.4 0.0
20/04:00am 20.1 21.0 12.8 63 4.2 CALM 0 0 0 0 1014.1 1012.8 0.0
20/03:30am 20.6 21.2 11.8 57 4.9 CALM 0 2 0 1 1013.8 1012.5 0.0
20/03:00am 22.0 21.4 11.7 52 5.8 NE 6 9 3 5 1013.6 1012.3 0.0
20/02:30am 22.0 21.7 11.4 51 5.9 ENE 4 7 2 4 1013.4 1012.1 0.0
20/02:00am 23.2 22.6 11.6 48 6.6 ENE 6 7 3 4 1013.4 1012.1 0.0
20/01:30am 23.3 23.3 11.0 46 6.9 SW 2 4 1 2 1013.5 1012.2 0.0
20/01:00am 24.4 24.4 11.0 43 7.6 S 2 6 1 3 1013.5 1012.2 0.0
20/12:30am 24.9 25.0 11.5 43 7.6 SSW 2 7 1 4 1013.7 1012.4 0.0
20/12:00am 24.9 24.0 10.8 41 7.9 SSE 6 7 3 4 1013.9 1012.6 0.0
 
Date/Time
WST
Temp
°C
App
Temp
°C
Dew
Point
Rel
Hum
%
Delta-T
°C
Wind Press
QNH
hPa
Press
MSL
hPa
Rain
since 9 am
mm
Dir
 
Spd
km/h
Gust
km/h
Spd
kts
Gust
kts
19/11:30pm 25.6 24.7 10.6 39 8.4 E 6 7 3 4 1014.0 1012.7 0.0
19/11:00pm 27.1 26.0 10.8 36 9.3 W 7 9 4 5 1014.1 1012.8 0.0
19/10:30pm 27.9 26.6 10.1 33 10.1 WSW 7 11 4 6 1014.4 1013.2 0.0
19/10:00pm 28.9 27.1 9.6 30 10.9 WSW 9 17 5 9 1014.5 1013.3 0.0
19/09:30pm 29.1 27.5 8.7 28 11.3 SW 7 13 4 7 1014.2 1013.0 0.0
19/09:00pm 30.0 27.7 9.0 27 11.8 SW 11 15 6 8 1014.0 1012.7 0.0
19/08:30pm 30.4 28.3 8.2 25 12.3 SW 9 15 5 8 1013.7 1012.4 0.0
19/08:00pm 31.2 27.9 8.2 24 12.8 SW 15 26 8 14 1013.4 1012.1 0.0
19/07:30pm 31.7 27.9 7.4 22 13.4 WSW 17 24 9 13 1013.0 1011.7 0.0
19/07:00pm 32.1 28.2 7.0 21 13.8 SW 17 26 9 14 1012.6 1011.3 0.0
19/06:30pm 32.7 28.2 6.8 20 14.2 WSW 20 26 11 14 1012.1 1010.8 0.0
19/06:00pm 33.1 28.6 7.1 20 14.4 WSW 20 30 11 16 1011.5 1010.3 0.0
19/05:30pm 33.9 29.4 7.0 19 14.9 WSW 20 32 11 17 1011.4 1010.2 0.0
19/05:00pm 34.7 29.4 6.9 18 15.4 SW 24 37 13 20 1011.2 1010.0 0.0
19/04:30pm 35.3 30.1 5.7 16 16.2 WSW 22 32 12 17 1010.9 1009.7 0.0
19/04:00pm 35.8 30.7 6.1 16 16.4 SW 22 39 12 21 1010.9 1009.7 0.0
19/03:30pm 36.3 30.6 6.5 16 16.6 SW 26 43 14 23 1010.9 1009.7 0.0
19/03:00pm 35.3 28.6 5.7 16 16.2 WSW 30 41 16 22 1011.0 1009.8 0.0
19/02:30pm 35.6 29.0 5.9 16 16.3 SW 30 43 16 23 1011.1 1009.9 0.0
19/02:00pm 36.4 31.6 4.6 14 17.2 W 19 33 10 18 1011.4 1010.2 0.0
19/01:45pm 35.3 29.2 6.6 17 15.9 WSW 28 46 15 25 1011.6 1010.4 0.0
19/01:30pm 35.7 30.4 6.9 17 16.1 W 24 37 13 20 1011.8 1010.6 0.0
19/01:00pm 35.9 31.0 7.0 17 16.2 W 22 33 12 18 1012.2 1010.9 0.0
19/12:30pm 34.6 29.9 7.6 19 15.1 WSW 22 37 12 20 1012.8 1011.5 0.0
19/12:00pm 34.9 30.2 7.9 19 15.2 W 22 35 12 19 1013.2 1011.9 0.0
19/11:30am 33.9 29.6 9.2 22 14.1 SSW 22 33 12 18 1013.5 1012.2 0.0
19/11:00am 32.9 30.5 11.4 27 12.7 WSW 15 22 8 12 1013.8 1012.5 0.0
19/10:30am 32.3 30.0 13.0 31 11.6 SW 17 24 9 13 1014.3 1013.1 0.0
19/10:00am 31.4 29.9 13.2 33 11.0 SW 13 20 7 11 1014.6 1013.4 0.0
19/09:30am 29.9 28.6 13.6 36 9.8 SW 13 20 7 11 1015.0 1013.8 0.0
19/09:00am 28.8 28.1 14.2 40 8.8 SW 11 17 6 9 1015.1 1013.9 0.0
19/08:30am 27.1 26.8 15.5 49 7.1 SSW 11 17 6 9 1015.0 1013.8 0.0
19/08:00am 26.2 26.8 16.7 56 5.9 SSW 9 15 5 8 1014.8 1013.6 0.0
19/07:30am 25.4 26.1 17.1 60 5.2 SW 9 13 5 7 1014.6 1013.4 0.0
19/07:00am 24.0 25.5 18.0 69 3.8 SW 7 11 4 6 1014.4 1013.2 0.0
19/06:30am 23.0 24.6 18.3 75 3.0 SW 7 11 4 6 1014.1 1012.8 0.0
19/06:00am 22.1 23.2 18.1 78 2.5 SSW 9 13 5 7 1013.6 1012.3 0.0
19/05:30am 21.4 22.9 17.6 79 2.4 SW 6 7 3 4 1013.3 1012.0 0.0
19/05:00am 21.6 23.5 17.6 78 2.5 SW 4 7 2 4 1013.0 1011.7 0.0
19/04:30am 21.9 24.1 18.3 80 2.3 WSW 4 7 2 4 1012.8 1011.5 0.0
19/04:00am 22.3 23.5 18.3 78 2.5 SW 9 15 5 8 1012.7 1011.4 0.0
19/03:30am 22.3 23.8 18.1 77 2.6 WSW 7 9 4 5 1012.6 1011.3 0.0
19/03:00am 22.6 24.4 18.2 76 2.8 WSW 6 9 3 5 1012.6 1011.3 0.0
19/02:30am 22.9 24.4 17.6 72 3.3 WSW 6 11 3 6 1012.7 1011.4 0.0
19/02:00am 23.2 24.6 17.7 71 3.4 WSW 7 9 4 5 1012.8 1011.5 0.0
19/01:30am 23.6 24.4 17.3 67 3.9 SW 9 13 5 7 1012.9 1011.6 0.0
19/01:00am 24.1 24.6 16.6 63 4.6 SW 9 13 5 7 1013.0 1011.7 0.0
19/12:30am 24.5 24.6 16.5 61 4.9 WSW 11 20 6 11 1013.4 1012.1 0.0
19/12:00am 24.8 25.7 16.5 60 5.1 WSW 7 13 4 7 1013.6 1012.3 0.0
 
Date/Time
WST
Temp
°C
App
Temp
°C
Dew
Point
Rel
Hum
%
Delta-T
°C
Wind Press
QNH
hPa
Press
MSL
hPa
Rain
since 9 am
mm
Dir
 
Spd
km/h
Gust
km/h
Spd
kts
Gust
kts
18/11:30pm 25.2 25.0 16.6 59 5.3 W 13 19 7 10 1013.8 1012.5 0.0
18/11:00pm 25.6 25.6 16.2 56 5.8 W 11 15 6 8 1013.9 1012.6 0.0
18/10:30pm 26.1 25.8 15.5 52 6.5 W 11 17 6 9 1014.1 1012.8 0.0
18/10:00pm 26.7 26.1 14.5 47 7.4 W 11 19 6 10 1014.1 1012.8 0.0
18/09:30pm 27.2 26.1 14.2 44 7.8 W 13 19 7 10 1014.0 1012.7 0.0
18/09:00pm 27.7 26.0 13.6 42 8.4 WSW 15 22 8 12 1013.7 1012.4 0.0
18/08:30pm 28.5 25.9 13.2 39 9.1 WSW 19 30 10 16 1013.4 1012.1 0.0
18/08:00pm 29.3 26.3 12.7 36 9.8 SW 20 30 11 16 1013.0 1011.7 0.0
18/07:30pm 30.1 28.0 12.5 34 10.4 W 15 20 8 11 1012.6 1011.3 0.0
18/07:00pm 31.0 28.0 12.4 32 11.1 W 20 32 11 17 1012.2 1010.9 0.0
18/06:30pm 32.1 28.5 11.8 29 12.0 W 22 37 12 20 1011.5 1010.3 0.0
18/06:00pm 33.1 28.5 9.8 24 13.4 W 24 33 13 18 1011.0 1009.8 0.0
18/05:30pm 34.5 29.6 8.3 20 14.8 W 24 35 13 19 1010.5 1009.3 0.0
18/05:00pm 35.6 30.1 7.6 18 15.8 W 26 44 14 24 1010.0 1008.8 0.0
18/04:30pm 35.7 31.8 9.3 20 15.3 W 20 33 11 18 1009.8 1008.6 0.0
18/04:00pm 35.8 31.9 8.6 19 15.6 W 19 24 10 13 1009.7 1008.5 0.0
18/03:30pm 36.4 31.8 8.3 18 16.1 NW 22 33 12 18 1009.6 1008.4 0.0
18/03:00pm 37.6 32.7 8.4 17 16.8 WNW 24 39 13 21 1009.7 1008.5 0.0
18/02:30pm 37.2 34.7 8.1 17 16.6 W 11 19 6 10 1010.0 1008.8 0.0
18/02:00pm 36.8 33.1 7.8 17 16.5 WNW 17 28 9 15 1010.4 1009.2 0.0
18/01:30pm 37.3 34.2 9.0 18 16.4 WNW 15 26 8 14 1010.7 1009.5 0.0
18/01:00pm 36.6 34.0 9.2 19 15.9 N 13 24 7 13 1011.0 1009.8 0.0
18/12:30pm 36.4 32.8 9.8 20 15.5 WSW 19 24 10 13 1011.7 1010.5 0.0
18/12:00pm 36.3 34.0 10.5 21 15.2 W 13 22 7 12 1012.3 1011.0 0.0
18/11:30am 35.0 33.9 10.8 23 14.3 WSW 7 19 4 10 1012.8 1011.5 0.0
18/11:00am 34.5 33.0 10.4 23 14.1 W 9 19 5 10 1013.4 1012.1 0.0
18/10:30am 33.3 32.4 11.2 26 13.0 W 7 15 4 8 1013.8 1012.5 0.0
18/10:00am 32.9 30.7 10.9 26 12.9 NNW 13 20 7 11 1014.3 1013.1 0.0
18/09:30am 32.5 31.5 11.1 27 12.5 NE 7 13 4 7 1014.6 1013.4 0.0
18/09:00am 31.3 30.3 12.2 31 11.3 NNE 9 19 5 10 1015.0 1013.8 0.0
18/08:30am 29.3 28.6 13.1 37 9.7 NE 9 15 5 8 1015.1 1013.9 0.0
18/08:00am 28.1 27.6 12.8 38 9.0 ENE 7 13 4 7 1015.0 1013.8 0.0
18/07:30am 26.9 26.7 12.9 42 8.2 E 6 7 3 4 1015.0 1013.8 0.0
18/07:00am 26.2 26.9 13.3 45 7.6 E 2 4 1 2 1014.5 1013.3 0.0
18/06:30am 23.3 24.1 12.6 51 6.2 CALM 0 2 0 1 1014.3 1013.1 0.0
18/06:00am 21.4 21.8 11.4 53 5.6 CALM 0 0 0 0 1013.9 1012.6 0.0
18/05:30am 20.7 21.0 10.8 53 5.5 CALM 0 0 0 0 1013.6 1012.3 0.0
18/05:00am 21.0 21.4 11.1 53 5.5 CALM 0 0 0 0 1013.4 1012.1 0.0
18/04:30am 21.7 22.1 11.1 51 5.9 CALM 0 0 0 0 1013.1 1011.8 0.0
18/04:00am 21.6 21.9 11.0 51 5.9 CALM 0 2 0 1 1012.9 1011.6 0.0
18/03:30am 22.3 22.2 10.8 48 6.4 ENE 2 4 1 2 1012.8 1011.5 0.0
18/03:00am 22.8 22.6 10.6 46 6.8 S 2 4 1 2 1012.7 1011.4 0.0
18/02:30am 24.1 23.5 11.8 46 7.0 ENE 6 7 3 4 1012.7 1011.4 0.0
18/02:00am 22.7 22.5 10.5 46 6.8 SE 2 4 1 2 1012.5 1011.2 0.0
18/01:30am 23.4 23.6 10.5 44 7.2 CALM 0 0 0 0 1012.5 1011.2 0.0
18/01:00am 24.2 23.7 10.8 43 7.5 SSE 4 6 2 3 1012.7 1011.4 0.0
18/12:30am 24.6 24.8 10.5 41 7.9 CALM 0 2 0 1 1013.0 1011.7 0.0
18/12:00am 25.1 25.0 10.9 41 8.0 SSE 2 6 1 3 1013.4 1012.1 0.0
 
Date/Time
WST
Temp
°C
App
Temp
°C
Dew
Point
Rel
Hum
%
Delta-T
°C
Wind Press
QNH
hPa
Press
MSL
hPa
Rain
since 9 am
mm
Dir
 
Spd
km/h
Gust
km/h
Spd
kts
Gust
kts
17/11:30pm 26.3 26.5 10.5 37 8.9 CALM 0 0 0 0 1013.6 1012.3 0.0
17/11:00pm 27.8 27.2 10.5 34 9.8 SW 4 6 2 3 1013.6 1012.3 0.0
17/10:30pm 28.3 26.5 10.9 34 10.0 SW 11 15 6 8 1013.7 1012.4 0.0
17/10:00pm 28.7 27.7 12.2 36 9.7 SW 9 15 5 8 1014.0 1012.7 0.0
17/09:30pm 28.9 26.6 11.9 35 9.9 SW 15 20 8 11 1014.0 1012.7 0.0
17/09:00pm 29.5 28.2 13.7 38 9.5 SW 13 20 7 11 1013.8 1012.5 0.0
17/08:30pm 30.2 28.9 15.9 42 8.9 SSW 17 22 9 12 1013.6 1012.3 0.0
17/08:00pm 30.9 29.7 16.1 41 9.3 SW 17 24 9 13 1013.2 1011.9 0.0
17/07:30pm 32.1 31.6 13.8 33 11.2 W 9 13 5 7 1012.8 1011.5 0.0
17/07:00pm 32.6 31.6 13.3 31 11.7 NNW 11 19 6 10 1012.6 1011.3 0.0
17/06:30pm 33.3 31.6 11.2 26 13.0 WNW 11 19 6 10 1012.0 1010.7 0.0
17/06:00pm 33.8 30.7 10.4 24 13.7 WNW 17 26 9 14 1011.3 1010.1 0.0

Other Formats:

Comma delimited format used in spreadsheet applications
http://www.bom.gov.au/fwo/IDW60801/IDW60801.95317.axf

JavaScript Object Notation format (JSON) in row-major order
http://www.bom.gov.au/fwo/IDW60801/IDW60801.95317.json